Terminal Aerodrome Forecast
Issued by NWS Charleston, WV

Current Version | Previous Version | Graphics & Text | Print | Product List | Glossary On
Versions: 1 2 3 4 5 6 7 8 9 10 11 12 13 14 15 16 17 18 19 20 21 22 23 24 25
165
FTUS41 KRLX 070538
TAFBKW
TAF
KBKW 070538Z 0706/0806 31010G16KT P6SM OVC012
      TEMPO 0706/0710 OVC006
     FM071000 31008KT P6SM OVC004
     FM071300 31006KT P6SM OVC008
     FM071400 31006KT P6SM OVC015
     FM071700 30004KT P6SM BKN025
     FM071900 30004KT P6SM BKN080
     FM072000 VRB03KT P6SM SCT200=

USA.gov is the U.S. government's official web portal to all federal, state and local government web resources and services.